Time;durP1;ratioP1;P1;durP2;ratioP2;P2;SDS_P1;SDS_P2;PMS_P1;PMS_P2;Temp;Humidity;BMP_temperature;BMP_pressure;BME280_temperature;BME280_humidity;BME280_pressure;Samples;Min_cycle;Max_cycle;Signal;HPM_P1;HPM_P2
2021/03/06 00:00:06;;;;;;;4.43;1.77;;;17.10;99.90;;;;;;5105284;28;20027;-58
2021/03/06 00:02:32;;;;;;;4.47;1.65;;;17.00;99.90;;;;;;5111153;28;20059;-58
2021/03/06 00:04:58;;;;;;;4.32;2.13;;;17.00;99.90;;;;;;5112878;28;20047;-61
2021/03/06 00:07:23;;;;;;;5.78;2.10;;;17.00;99.90;;;;;;5111370;28;20039;-60
2021/03/06 00:09:49;;;;;;;3.92;2.00;;;17.00;99.90;;;;;;5112661;28;20023;-60
2021/03/06 00:12:14;;;;;;;3.95;1.92;;;16.90;99.90;;;;;;5105247;28;20119;-60
2021/03/06 00:14:40;;;;;;;4.60;1.95;;;16.90;99.90;;;;;;5106940;28;20028;-58
2021/03/06 00:17:06;;;;;;;6.30;2.10;;;16.90;99.90;;;;;;5101588;28;20027;-60
2021/03/06 00:19:32;;;;;;;5.55;2.10;;;16.90;99.90;;;;;;5092197;28;20020;-60
2021/03/06 00:21:57;;;;;;;4.43;1.80;;;16.90;99.90;;;;;;5107163;28;20543;-60
2021/03/06 00:24:23;;;;;;;3.85;1.92;;;16.80;99.90;;;;;;5112714;28;20035;-59
2021/03/06 00:26:49;;;;;;;4.60;2.00;;;16.80;99.90;;;;;;5100306;28;20020;-59
2021/03/06 00:29:15;;;;;;;3.45;1.70;;;16.80;99.90;;;;;;5092112;28;20111;-59
2021/03/06 00:31:41;;;;;;;4.53;2.10;;;16.80;99.90;;;;;;5101598;28;20045;-59
2021/03/06 00:34:08;;;;;;;3.75;1.77;;;16.70;99.90;;;;;;5107980;28;20572;-61
2021/03/06 00:36:34;;;;;;;3.65;1.77;;;16.70;99.90;;;;;;5090893;28;20039;-61
2021/03/06 00:39:00;;;;;;;3.97;2.10;;;16.70;99.90;;;;;;5091979;28;20490;-60
2021/03/06 00:41:26;;;;;;;3.55;2.25;;;16.70;99.90;;;;;;5091440;28;20472;-61
2021/03/06 00:43:51;;;;;;;3.00;1.75;;;16.70;99.90;;;;;;5097816;28;20106;-61
2021/03/06 00:46:17;;;;;;;5.72;2.00;;;16.60;99.90;;;;;;5109434;28;20387;-60
2021/03/06 00:48:43;;;;;;;3.60;1.73;;;16.60;99.90;;;;;;5101915;28;20085;-62
2021/03/06 00:51:09;;;;;;;3.70;2.00;;;16.60;99.90;;;;;;5091977;28;20032;-63
2021/03/06 00:53:36;;;;;;;2.70;1.90;;;16.60;99.90;;;;;;5098406;28;20088;-59
2021/03/06 00:56:02;;;;;;;3.13;2.00;;;16.60;99.90;;;;;;5106921;28;20019;-61
2021/03/06 00:58:28;;;;;;;5.25;1.60;;;16.60;99.90;;;;;;5112173;28;20024;-63
2021/03/06 01:00:54;;;;;;;4.00;2.08;;;16.50;99.90;;;;;;5108925;28;20379;-60
2021/03/06 01:03:20;;;;;;;6.78;1.83;;;16.50;99.90;;;;;;5111260;28;20036;-65
2021/03/06 01:05:45;;;;;;;5.82;2.00;;;16.50;99.90;;;;;;5111942;28;20039;-64
2021/03/06 01:08:11;;;;;;;5.18;1.88;;;16.50;99.90;;;;;;5110640;28;20036;-63
2021/03/06 01:10:39;;;;;;;3.30;1.80;;;16.50;99.90;;;;;;5112056;28;20501;-61
2021/03/06 01:13:06;;;;;;;3.50;1.80;;;16.50;99.90;;;;;;5107468;28;20019;-63
2021/03/06 01:15:33;;;;;;;2.85;1.77;;;16.40;99.90;;;;;;5110667;28;20073;-63
2021/03/06 01:17:59;;;;;;;5.93;1.67;;;16.40;99.90;;;;;;5112076;28;20031;-64
2021/03/06 01:20:25;;;;;;;5.72;1.73;;;16.40;99.90;;;;;;5113675;28;20024;-61
2021/03/06 01:22:51;;;;;;;4.43;1.90;;;16.40;99.90;;;;;;5116253;28;20020;-61
2021/03/06 01:25:17;;;;;;;4.47;1.90;;;16.40;99.90;;;;;;5112371;28;20038;-59
2021/03/06 01:27:43;;;;;;;4.97;1.80;;;16.40;99.90;;;;;;5095966;28;20092;-64
2021/03/06 01:30:09;;;;;;;3.20;1.92;;;16.30;99.90;;;;;;5115784;28;20024;-62
2021/03/06 01:32:35;;;;;;;3.92;1.90;;;16.30;99.90;;;;;;5105231;28;20077;-64
2021/03/06 01:35:02;;;;;;;4.78;1.90;;;16.30;99.90;;;;;;5095022;28;20032;-63
2021/03/06 01:37:28;;;;;;;2.65;1.50;;;16.30;99.90;;;;;;5102735;28;20037;-61
2021/03/06 01:39:53;;;;;;;3.95;1.67;;;16.30;99.90;;;;;;5115749;28;20094;-63
2021/03/06 01:42:20;;;;;;;4.00;1.80;;;16.30;99.90;;;;;;5113271;28;20055;-61
2021/03/06 01:44:46;;;;;;;5.38;1.77;;;16.20;99.90;;;;;;5115524;28;20353;-58
2021/03/06 01:47:12;;;;;;;3.10;1.60;;;16.20;99.90;;;;;;5113697;28;20044;-61
2021/03/06 01:49:38;;;;;;;4.82;1.83;;;16.20;99.90;;;;;;5113792;28;20418;-60
2021/03/06 01:52:04;;;;;;;5.55;1.92;;;16.20;99.90;;;;;;5115347;28;20031;-59
2021/03/06 01:54:30;;;;;;;4.30;2.05;;;16.20;99.90;;;;;;5099777;28;20040;-58
2021/03/06 01:56:56;;;;;;;4.13;1.60;;;16.20;99.90;;;;;;5096344;28;20024;-59
2021/03/06 01:59:22;;;;;;;4.47;1.80;;;16.10;99.90;;;;;;5095175;28;20058;-59
2021/03/06 02:01:48;;;;;;;4.97;1.80;;;16.10;99.90;;;;;;5103901;28;20059;-58
2021/03/06 02:04:14;;;;;;;4.40;1.92;;;16.10;99.90;;;;;;5115161;28;20459;-62
2021/03/06 02:06:40;;;;;;;3.13;1.75;;;16.10;99.90;;;;;;5113676;28;20145;-60
2021/03/06 02:09:06;;;;;;;5.18;1.88;;;16.00;99.90;;;;;;5096356;28;20040;-60
2021/03/06 02:11:54;;;;;;;6.32;2.08;;;16.00;99.90;;;;;;5094858;28;20033;-63
2021/03/06 02:14:47;;;;;;;4.40;1.98;;;16.00;99.90;;;;;;5105274;28;20443;-63
2021/03/06 02:17:34;;;;;;;4.28;1.83;;;16.00;99.90;;;;;;5113535;28;20028;-62
2021/03/06 02:20:18;;;;;;;3.35;1.83;;;16.00;99.90;;;;;;5113246;28;20019;-64
2021/03/06 02:23:16;;;;;;;5.55;1.80;;;15.90;99.90;;;;;;5114716;28;20024;-63
2021/03/06 02:26:19;;;;;;;4.38;1.60;;;15.90;99.90;;;;;;5053778;28;20069;-62
2021/03/06 02:29:02;;;;;;;2.22;1.65;;;15.90;99.90;;;;;;5114507;28;20618;-62
2021/03/06 02:31:31;;;;;;;4.13;1.60;;;15.90;99.90;;;;;;5100781;28;20609;-62
2021/03/06 02:34:16;;;;;;;4.57;1.92;;;15.80;99.90;;;;;;5098915;28;20028;-61
2021/03/06 02:36:51;;;;;;;9.02;1.95;;;15.80;99.90;;;;;;5114358;28;20039;-62
2021/03/06 02:39:19;;;;;;;6.30;2.00;;;15.90;99.90;;;;;;5107100;28;20165;-60
2021/03/06 02:41:47;;;;;;;6.53;1.73;;;15.90;99.90;;;;;;5112013;28;20043;-59
2021/03/06 02:44:14;;;;;;;4.30;1.83;;;15.90;99.90;;;;;;5112598;28;20406;-63
2021/03/06 02:46:42;;;;;;;5.50;2.00;;;15.80;99.90;;;;;;5110986;28;20020;-62
2021/03/06 02:49:07;;;;;;;3.83;2.20;;;15.80;99.90;;;;;;5112528;28;20502;-63
2021/03/06 02:51:37;;;;;;;5.85;1.83;;;15.80;99.90;;;;;;5113124;28;20034;-63
2021/03/06 02:54:03;;;;;;;3.08;1.65;;;15.80;99.90;;;;;;5112854;28;20408;-61
2021/03/06 02:56:29;;;;;;;5.47;2.00;;;15.80;99.90;;;;;;5106246;28;20085;-60
2021/03/06 02:58:55;;;;;;;4.75;2.30;;;15.80;99.90;;;;;;5102320;28;20032;-65
2021/03/06 03:01:42;;;;;;;5.82;1.73;;;15.70;99.90;;;;;;5103657;28;20039;-62
2021/03/06 03:04:15;;;;;;;3.33;1.83;;;15.70;99.90;;;;;;5093663;28;20085;-64
2021/03/06 03:06:45;;;;;;;5.57;1.85;;;15.70;99.90;;;;;;5100450;28;20063;-60
2021/03/06 03:09:20;;;;;;;4.07;1.90;;;15.70;99.90;;;;;;5114436;28;20051;-63
2021/03/06 03:12:11;;;;;;;5.22;1.70;;;15.70;99.90;;;;;;5110435;28;20493;-61
2021/03/06 03:15:02;;;;;;;4.75;1.77;;;15.60;99.90;;;;;;5110654;28;20028;-61
2021/03/06 03:17:35;;;;;;;10.13;1.92;;;15.60;99.90;;;;;;5113063;28;20152;-62
2021/03/06 03:20:04;;;;;;;6.32;2.13;;;15.60;99.90;;;;;;5114195;28;20468;-66
2021/03/06 03:22:38;;;;;;;3.90;2.05;;;15.60;99.90;;;;;;5100706;28;20028;-66
2021/03/06 03:25:10;;;;;;;4.97;2.13;;;15.60;99.90;;;;;;5085676;28;20031;-60
2021/03/06 03:27:38;;;;;;;3.28;1.70;;;15.60;99.90;;;;;;5093139;28;20040;-60
2021/03/06 03:30:24;;;;;;;3.95;1.90;;;15.50;99.90;;;;;;5094733;28;20431;-61
2021/03/06 03:32:51;;;;;;;5.78;2.00;;;15.50;99.90;;;;;;5111643;28;20024;-65
2021/03/06 03:35:19;;;;;;;5.82;2.05;;;15.50;99.90;;;;;;5107070;28;20027;-62
2021/03/06 03:37:48;;;;;;;5.38;2.00;;;15.50;99.90;;;;;;5110196;28;20117;-60
2021/03/06 03:40:16;;;;;;;3.88;2.10;;;15.50;99.90;;;;;;5113289;28;20026;-60
2021/03/06 03:42:42;;;;;;;4.05;1.90;;;15.40;99.90;;;;;;5100693;28;20019;-61
2021/03/06 03:45:10;;;;;;;4.47;1.80;;;15.40;99.90;;;;;;5109074;28;20107;-60
2021/03/06 03:47:41;;;;;;;4.40;1.55;;;15.40;99.90;;;;;;5112998;28;20105;-65
2021/03/06 03:50:10;;;;;;;4.53;1.80;;;15.40;99.90;;;;;;5111603;28;20055;-66
2021/03/06 03:52:42;;;;;;;5.72;1.92;;;15.40;99.90;;;;;;5111634;28;20027;-65
2021/03/06 03:55:09;;;;;;;3.25;1.60;;;15.40;99.90;;;;;;5110369;28;20024;-65
2021/03/06 03:57:38;;;;;;;4.95;1.73;;;15.40;99.90;;;;;;5099697;28;20023;-64
2021/03/06 04:00:10;;;;;;;6.28;2.00;;;15.30;99.90;;;;;;5109113;28;20035;-62
2021/03/06 04:02:36;;;;;;;4.85;1.88;;;15.30;99.90;;;;;;5107101;28;20031;-61
2021/03/06 04:05:06;;;;;;;3.28;1.52;;;15.40;99.90;;;;;;5092674;28;20016;-61
2021/03/06 04:07:46;;;;;;;4.63;1.90;;;15.40;99.90;;;;;;5107892;28;20051;-59
2021/03/06 04:10:17;;;;;;;5.28;1.85;;;15.40;99.90;;;;;;5111583;28;20024;-60
2021/03/06 04:12:44;;;;;;;3.13;1.83;;;15.40;99.90;;;;;;5110977;28;20050;-59
2021/03/06 04:15:11;;;;;;;3.65;1.90;;;15.30;99.90;;;;;;5112517;28;20030;-60
2021/03/06 04:17:37;;;;;;;3.80;1.63;;;15.30;99.90;;;;;;5106259;28;20026;-59
2021/03/06 04:20:05;;;;;;;2.63;1.50;;;15.40;99.90;;;;;;5092431;28;20028;-60
2021/03/06 04:22:31;;;;;;;2.85;1.70;;;15.30;99.90;;;;;;5095085;28;20418;-61
2021/03/06 04:24:57;;;;;;;2.75;1.70;;;15.30;99.90;;;;;;5111535;28;20062;-62
2021/03/06 04:27:23;;;;;;;2.78;1.63;;;15.30;99.90;;;;;;5081559;28;20044;-62
2021/03/06 04:29:49;;;;;;;5.15;2.03;;;15.40;99.90;;;;;;5088578;28;20373;-61
2021/03/06 04:32:14;;;;;;;5.30;1.80;;;15.30;99.90;;;;;;5110452;28;20040;-64
2021/03/06 04:34:40;;;;;;;10.25;1.70;;;15.30;99.90;;;;;;5093910;28;20031;-61
2021/03/06 04:37:06;;;;;;;6.10;1.55;;;15.40;99.90;;;;;;5092159;28;20032;-62
2021/03/06 04:39:32;;;;;;;4.43;1.88;;;15.40;99.90;;;;;;5099831;28;20051;-61
2021/03/06 04:41:57;;;;;;;5.82;1.58;;;15.40;99.90;;;;;;5112541;28;20096;-61
2021/03/06 04:44:23;;;;;;;2.88;1.60;;;15.30;99.90;;;;;;5096961;28;20479;-62
2021/03/06 04:46:49;;;;;;;4.60;1.83;;;15.30;99.90;;;;;;5110920;28;20032;-61
2021/03/06 04:49:14;;;;;;;4.40;1.80;;;15.30;99.90;;;;;;5112330;28;20031;-59
2021/03/06 04:51:40;;;;;;;2.72;1.58;;;15.30;99.90;;;;;;5110999;28;20027;-62
2021/03/06 04:54:06;;;;;;;3.72;1.70;;;15.30;99.90;;;;;;5113528;28;20069;-62
2021/03/06 04:56:32;;;;;;;4.55;1.80;;;15.40;99.90;;;;;;5114764;28;20047;-61
2021/03/06 04:58:57;;;;;;;2.78;1.77;;;15.40;99.90;;;;;;5114473;28;20032;-62
2021/03/06 05:01:23;;;;;;;3.45;1.67;;;15.30;99.90;;;;;;5114290;28;20452;-60
2021/03/06 05:03:49;;;;;;;2.33;1.38;;;15.30;99.90;;;;;;5116370;28;20094;-61
2021/03/06 05:06:15;;;;;;;4.57;1.92;;;15.30;99.90;;;;;;5107717;28;20119;-60
2021/03/06 05:08:40;;;;;;;8.60;1.88;;;15.30;99.90;;;;;;5110577;28;20119;-60
2021/03/06 05:11:07;;;;;;;4.30;1.90;;;15.30;99.90;;;;;;5112225;28;20028;-61
2021/03/06 05:13:33;;;;;;;2.78;1.50;;;15.30;99.90;;;;;;5106718;28;20024;-62
2021/03/06 05:15:59;;;;;;;5.43;1.55;;;15.30;99.90;;;;;;5095565;28;20491;-63
2021/03/06 05:18:24;;;;;;;3.45;1.65;;;15.30;99.90;;;;;;5110849;28;20020;-60
2021/03/06 05:20:50;;;;;;;4.57;1.88;;;15.30;99.90;;;;;;5112078;28;20039;-60
2021/03/06 05:23:16;;;;;;;4.25;1.63;;;15.30;99.90;;;;;;5115994;28;20023;-61
2021/03/06 05:25:42;;;;;;;3.35;1.83;;;15.30;99.90;;;;;;5113627;28;20062;-62
2021/03/06 05:28:08;;;;;;;6.80;1.77;;;15.30;99.90;;;;;;5108323;28;20067;-59
2021/03/06 05:30:33;;;;;;;4.00;1.70;;;15.30;99.90;;;;;;5111219;28;20107;-60
2021/03/06 05:32:59;;;;;;;3.40;1.70;;;15.30;99.90;;;;;;5110112;28;20422;-62
2021/03/06 05:35:25;;;;;;;3.25;1.73;;;15.20;99.90;;;;;;5096220;28;20032;-60
2021/03/06 05:37:50;;;;;;;2.58;1.60;;;15.20;99.90;;;;;;5101882;28;20039;-61
2021/03/06 05:40:16;;;;;;;3.60;1.70;;;15.20;99.90;;;;;;5093833;28;20475;-60
2021/03/06 05:42:42;;;;;;;3.78;1.50;;;15.20;99.90;;;;;;5100462;28;20047;-61
2021/03/06 05:45:09;;;;;;;6.25;1.95;;;15.10;99.90;;;;;;5110286;28;20036;-60
2021/03/06 05:47:34;;;;;;;3.78;1.58;;;15.10;99.90;;;;;;5114465;28;20035;-60
2021/03/06 05:50:01;;;;;;;3.92;1.60;;;15.10;99.20;;;;;;5113911;28;20023;-60
2021/03/06 05:52:28;;;;;;;3.50;1.65;;;15.10;99.70;;;;;;5115646;28;20161;-65
2021/03/06 05:54:56;;;;;;;4.55;2.00;;;15.10;99.70;;;;;;5106523;28;20051;-65
2021/03/06 05:57:22;;;;;;;3.60;1.77;;;15.10;99.60;;;;;;5104062;28;20042;-65
2021/03/06 05:59:48;;;;;;;4.45;1.70;;;15.10;99.50;;;;;;5096360;28;20035;-62
2021/03/06 06:02:18;;;;;;;3.40;1.90;;;15.10;99.90;;;;;;5103932;28;20027;-64
2021/03/06 06:04:47;;;;;;;5.22;1.95;;;15.10;99.90;;;;;;5114465;28;20027;-65
2021/03/06 06:07:17;;;;;;;3.00;1.80;;;15.10;99.90;;;;;;5109374;28;20059;-65
2021/03/06 06:09:44;;;;;;;3.58;1.88;;;15.10;99.90;;;;;;5114958;28;20027;-64
2021/03/06 06:12:10;;;;;;;3.67;1.48;;;15.10;99.60;;;;;;5102082;28;20028;-65
2021/03/06 06:14:36;;;;;;;2.97;1.55;;;15.10;99.90;;;;;;5107555;28;20028;-59
2021/03/06 06:17:10;;;;;;;4.13;1.63;;;15.10;99.90;;;;;;5113942;28;20076;-63
2021/03/06 06:19:37;;;;;;;3.85;2.10;;;15.00;99.90;;;;;;5073104;28;20074;-60
2021/03/06 06:22:21;;;;;;;2.72;1.48;;;15.00;99.90;;;;;;5074065;28;20045;-61
2021/03/06 06:24:49;;;;;;;2.78;1.60;;;15.00;99.90;;;;;;5094758;28;20427;-61
2021/03/06 06:27:26;;;;;;;4.32;1.92;;;15.00;99.90;;;;;;5095359;28;20127;-61
2021/03/06 06:29:54;;;;;;;3.10;1.70;;;15.10;99.90;;;;;;5107531;28;20062;-60
2021/03/06 06:32:26;;;;;;;3.15;1.80;;;15.00;99.90;;;;;;5112427;28;20108;-60
2021/03/06 06:35:05;;;;;;;4.72;2.03;;;15.00;99.90;;;;;;5098918;28;20058;-59
2021/03/06 06:37:31;;;;;;;7.00;1.88;;;15.00;99.90;;;;;;5114457;28;20080;-59
2021/03/06 06:39:57;;;;;;;5.45;1.75;;;15.00;99.90;;;;;;5096838;28;20024;-60
2021/03/06 06:42:31;;;;;;;3.45;1.60;;;15.00;99.90;;;;;;5073954;28;20486;-60
2021/03/06 06:44:57;;;;;;;4.95;1.70;;;15.00;99.90;;;;;;5103161;28;20024;-59
2021/03/06 06:47:23;;;;;;;3.78;1.60;;;15.00;99.90;;;;;;5109268;28;20047;-62
2021/03/06 06:49:51;;;;;;;2.47;1.70;;;14.90;99.90;;;;;;5094020;28;20020;-60
2021/03/06 06:52:19;;;;;;;2.78;1.65;;;14.90;99.90;;;;;;5093807;28;20035;-60
2021/03/06 06:54:56;;;;;;;3.53;1.48;;;14.90;99.90;;;;;;5113136;28;20106;-61
2021/03/06 06:57:23;;;;;;;2.35;1.40;;;14.90;99.90;;;;;;5108191;28;20102;-60
2021/03/06 06:59:56;;;;;;;2.75;1.45;;;14.90;99.90;;;;;;5108667;28;20035;-62
2021/03/06 07:02:23;;;;;;;5.97;1.63;;;14.90;99.90;;;;;;5095273;28;20379;-62
2021/03/06 07:04:52;;;;;;;3.38;1.90;;;14.90;99.90;;;;;;5092597;28;20446;-60
2021/03/06 07:07:20;;;;;;;6.20;1.83;;;14.70;98.50;;;;;;5101872;28;20020;-59
2021/03/06 07:10:01;;;;;;;3.30;1.50;;;14.50;98.30;;;;;;5091163;28;20113;-60
2021/03/06 07:12:29;;;;;;;2.47;1.65;;;14.70;98.10;;;;;;5090088;28;20024;-59
2021/03/06 07:14:55;;;;;;;4.65;1.90;;;14.80;98.30;;;;;;5094912;28;20028;-60
2021/03/06 07:17:20;;;;;;;5.28;1.90;;;14.90;98.80;;;;;;5092262;28;20035;-60
2021/03/06 07:19:46;;;;;;;5.50;2.20;;;14.90;98.90;;;;;;5093526;28;20020;-60
2021/03/06 07:22:12;;;;;;;3.20;1.67;;;14.90;98.50;;;;;;5105481;28;20035;-61
2021/03/06 07:24:38;;;;;;;9.85;2.33;;;14.80;98.90;;;;;;5093399;28;20031;-59
2021/03/06 07:27:04;;;;;;;6.97;1.50;;;14.90;99.00;;;;;;5110421;28;20043;-60
2021/03/06 07:29:30;;;;;;;5.55;1.67;;;14.90;97.50;;;;;;5112009;28;20035;-62
2021/03/06 07:31:57;;;;;;;6.93;2.08;;;14.90;97.20;;;;;;5091951;28;20035;-59
2021/03/06 07:34:25;;;;;;;7.05;2.55;;;14.90;96.00;;;;;;5092201;28;20061;-60
2021/03/06 07:36:58;;;;;;;7.95;3.63;;;15.00;96.00;;;;;;5092598;28;20031;-59
2021/03/06 07:39:26;;;;;;;8.45;4.32;;;13.90;93.50;;;;;;5093056;28;20024;-60
2021/03/06 07:42:01;;;;;;;8.80;4.65;;;13.00;92.90;;;;;;5092877;28;20024;-65
2021/03/06 07:44:28;;;;;;;9.20;4.78;;;12.40;93.00;;;;;;5088325;28;20031;-60
2021/03/06 07:46:56;;;;;;;9.60;5.15;;;12.00;93.20;;;;;;5092356;28;20054;-62
2021/03/06 07:49:28;;;;;;;15.02;5.55;;;11.70;93.40;;;;;;5092849;28;20024;-60
2021/03/06 07:51:57;;;;;;;5.65;2.95;;;11.70;93.40;;;;;;5090951;28;20027;-60
2021/03/06 07:54:24;;;;;;;16.98;2.88;;;12.40;99.10;;;;;;5092763;28;20471;-59
2021/03/06 07:56:50;;;;;;;10.43;2.63;;;13.60;96.40;;;;;;5092933;28;20438;-61
2021/03/06 07:59:15;;;;;;;9.65;3.15;;;14.20;95.40;;;;;;5093010;28;20024;-60
2021/03/06 08:01:41;;;;;;;5.50;2.85;;;14.60;94.60;;;;;;5091581;28;20376;-59
2021/03/06 08:04:34;;;;;;;4.90;2.58;;;14.80;93.90;;;;;;5092825;28;20036;-60
2021/03/06 08:07:11;;;;;;;7.43;2.55;;;15.00;93.50;;;;;;5091901;28;20035;-60
2021/03/06 08:10:00;;;;;;;5.47;2.42;;;15.10;93.10;;;;;;5090930;28;20224;-59
2021/03/06 08:12:33;;;;;;;7.18;2.58;;;15.20;92.80;;;;;;5092527;28;20027;-60
2021/03/06 08:14:58;;;;;;;7.43;3.03;;;15.20;92.60;;;;;;5091834;28;20069;-59
2021/03/06 08:17:31;;;;;;;4.72;2.60;;;15.30;92.40;;;;;;5092023;28;20450;-59
2021/03/06 08:19:57;;;;;;;5.47;2.70;;;15.30;92.50;;;;;;5091880;28;20388;-60
2021/03/06 08:22:23;;;;;;;10.40;2.70;;;15.40;92.10;;;;;;5090473;28;20028;-59
2021/03/06 08:24:48;;;;;;;9.00;2.53;;;15.40;91.90;;;;;;5092321;28;20471;-60
2021/03/06 08:27:17;;;;;;;4.43;2.45;;;15.50;91.80;;;;;;5091942;28;20039;-59
2021/03/06 08:29:47;;;;;;;4.93;2.15;;;15.50;91.80;;;;;;5097357;28;20019;-59
2021/03/06 08:32:17;;;;;;;3.55;2.00;;;15.60;91.70;;;;;;5092639;28;20024;-60
2021/03/06 08:34:49;;;;;;;4.55;2.20;;;15.70;91.60;;;;;;5092169;28;20028;-60
2021/03/06 08:37:15;;;;;;;47.22;4.57;;;15.70;91.70;;;;;;5092262;28;20067;-59
2021/03/06 08:39:44;;;;;;;15.88;3.35;;;15.60;92.40;;;;;;5103388;28;20048;-59
2021/03/06 08:42:11;;;;;;;13.98;2.72;;;15.20;92.40;;;;;;5112388;28;20020;-59
2021/03/06 08:44:38;;;;;;;14.48;5.15;;;15.20;93.80;;;;;;5099743;28;20035;-60
2021/03/06 08:47:05;;;;;;;11.80;4.95;;;14.40;92.10;;;;;;5091970;28;20028;-60
2021/03/06 08:49:32;;;;;;;10.95;5.65;;;13.50;92.50;;;;;;5092051;28;20032;-59
2021/03/06 08:51:58;;;;;;;10.57;4.13;;;13.00;93.10;;;;;;5092205;28;20376;-60
2021/03/06 08:54:24;;;;;;;8.35;4.18;;;13.50;94.40;;;;;;5090474;28;20468;-60
2021/03/06 08:56:51;;;;;;;7.95;3.92;;;14.20;93.80;;;;;;5092160;28;20044;-61
2021/03/06 08:59:16;;;;;;;9.23;3.78;;;14.40;93.90;;;;;;5092296;28;20038;-62
2021/03/06 09:01:43;;;;;;;8.40;3.58;;;14.80;93.70;;;;;;5091799;28;20103;-62
2021/03/06 09:04:10;;;;;;;9.13;2.90;;;14.90;93.40;;;;;;5091219;28;20020;-61
2021/03/06 09:06:39;;;;;;;12.88;2.78;;;15.50;92.80;;;;;;5091870;28;20065;-61
2021/03/06 09:09:08;;;;;;;13.93;3.13;;;16.20;92.10;;;;;;5091750;28;20043;-61
2021/03/06 09:11:34;;;;;;;7.45;2.92;;;16.00;91.90;;;;;;5091791;28;20020;-59
2021/03/06 09:14:00;;;;;;;9.02;3.58;;;16.00;91.90;;;;;;5091469;28;20043;-62
2021/03/06 09:16:25;;;;;;;6.88;3.05;;;15.80;91.70;;;;;;5091060;28;20027;-60
2021/03/06 09:18:51;;;;;;;9.65;3.28;;;15.80;91.20;;;;;;5091400;28;20059;-67
2021/03/06 09:21:25;;;;;;;12.80;3.33;;;15.70;91.30;;;;;;5092006;28;20027;-76
2021/03/06 09:23:54;;;;;;;10.85;4.35;;;15.80;91.10;;;;;;5091983;28;20047;-62
2021/03/06 09:26:25;;;;;;;13.07;4.60;;;15.60;91.80;;;;;;5091869;28;20111;-62
2021/03/06 09:28:53;;;;;;;10.95;4.10;;;15.40;91.90;;;;;;5092064;28;20036;-75
2021/03/06 09:31:29;;;;;;;11.63;3.80;;;15.30;92.60;;;;;;5091333;28;20038;-64
2021/03/06 09:33:59;;;;;;;8.07;3.42;;;15.80;92.60;;;;;;5091562;28;20020;-70
2021/03/06 09:36:29;;;;;;;7.75;3.00;;;16.00;91.90;;;;;;5091577;28;20029;-69
2021/03/06 09:38:57;;;;;;;4.38;2.63;;;16.20;91.20;;;;;;5091785;28;20024;-65
2021/03/06 09:41:41;;;;;;;8.65;2.70;;;16.30;91.50;;;;;;5094131;28;20028;-66
2021/03/06 09:44:09;;;;;;;7.72;2.78;;;16.50;91.80;;;;;;5095294;28;20088;-65
2021/03/06 09:46:36;;;;;;;9.23;2.88;;;16.60;91.40;;;;;;5095022;28;20035;-64
2021/03/06 09:49:03;;;;;;;6.05;2.35;;;16.60;91.30;;;;;;5095187;28;20032;-62
2021/03/06 09:51:44;;;;;;;7.65;2.60;;;16.60;90.70;;;;;;5095159;28;20392;-62
2021/03/06 09:54:11;;;;;;;7.28;2.58;;;16.70;90.90;;;;;;5095210;28;20093;-64
2021/03/06 09:56:53;;;;;;;6.13;3.10;;;16.60;90.80;;;;;;5094954;28;20486;-65
2021/03/06 09:59:20;;;;;;;10.10;3.45;;;16.40;94.60;;;;;;5095259;28;20028;-62
2021/03/06 10:01:46;;;;;;;6.22;3.60;;;16.30;95.60;;;;;;5094409;28;20472;-64
2021/03/06 10:04:14;;;;;;;7.97;3.50;;;16.00;96.90;;;;;;5094499;28;20518;-71
2021/03/06 10:06:49;;;;;;;5.38;3.40;;;16.00;96.30;;;;;;5094830;28;20134;-71
2021/03/06 10:09:17;;;;;;;8.15;4.20;;;15.90;94.10;;;;;;5094533;28;20447;-71
2021/03/06 10:11:45;;;;;;;5.60;3.38;;;15.70;90.70;;;;;;5094714;28;20016;-71
2021/03/06 10:14:12;;;;;;;6.32;3.90;;;15.60;90.70;;;;;;5094609;28;20114;-73
2021/03/06 10:16:58;;;;;;;5.28;3.30;;;15.50;90.50;;;;;;5094296;28;20024;-73
2021/03/06 10:19:30;;;;;;;5.38;3.10;;;15.80;91.90;;;;;;5094730;28;20020;-73
2021/03/06 10:22:01;;;;;;;7.68;3.17;;;16.00;91.60;;;;;;5094752;28;20020;-72
2021/03/06 10:24:27;;;;;;;7.20;3.40;;;16.10;91.50;;;;;;5094279;28;20024;-73
2021/03/06 10:27:03;;;;;;;6.75;2.47;;;16.20;91.20;;;;;;5093924;28;20024;-73
2021/03/06 10:29:30;;;;;;;10.23;2.97;;;16.20;91.30;;;;;;5094396;28;20056;-72
2021/03/06 10:32:03;;;;;;;6.13;2.53;;;16.30;91.20;;;;;;5094547;28;20031;-73
2021/03/06 10:34:33;;;;;;;4.25;2.58;;;16.30;91.20;;;;;;5094303;28;20426;-73
2021/03/06 10:37:12;;;;;;;5.78;2.60;;;16.30;91.20;;;;;;5094161;28;20503;-73
2021/03/06 10:40:02;;;;;;;4.03;2.28;;;16.40;91.20;;;;;;5092310;28;20403;-71
2021/03/06 10:42:40;;;;;;;4.63;2.33;;;16.40;91.10;;;;;;5092948;28;20028;-74
2021/03/06 10:45:22;;;;;;;3.97;2.25;;;16.50;91.10;;;;;;5094316;28;20049;-73
2021/03/06 10:47:53;;;;;;;5.55;2.00;;;16.50;90.90;;;;;;5093437;28;20056;-73
2021/03/06 10:50:39;;;;;;;7.65;2.55;;;16.50;90.80;;;;;;5094087;28;20024;-74
2021/03/06 10:53:18;;;;;;;4.78;2.03;;;16.60;90.70;;;;;;5093050;28;20028;-73
2021/03/06 10:55:46;;;;;;;3.03;1.98;;;16.60;90.70;;;;;;5092609;28;20075;-73
2021/03/06 10:58:12;;;;;;;3.42;2.03;;;16.60;90.60;;;;;;5093963;28;20479;-73
2021/03/06 11:00:39;;;;;;;4.93;1.88;;;16.70;90.50;;;;;;5093803;28;20031;-74
2021/03/06 11:03:07;;;;;;;4.18;2.30;;;16.70;90.50;;;;;;5093503;28;20066;-73
2021/03/06 11:05:33;;;;;;;3.78;1.95;;;16.70;90.50;;;;;;5093055;28;20035;-73
2021/03/06 11:08:15;;;;;;;4.15;1.90;;;16.80;90.30;;;;;;5092573;28;20068;-71
2021/03/06 11:10:43;;;;;;;5.38;1.85;;;16.80;90.40;;;;;;5093557;28;20024;-72
2021/03/06 11:13:10;;;;;;;4.30;2.20;;;16.90;90.30;;;;;;5093601;28;20012;-72
2021/03/06 11:15:48;;;;;;;3.55;1.67;;;17.00;90.20;;;;;;5093520;28;20035;-72
2021/03/06 11:18:13;;;;;;;5.28;1.92;;;17.00;90.10;;;;;;5093302;28;20070;-73
2021/03/06 11:20:39;;;;;;;2.88;1.67;;;17.10;90.20;;;;;;5093523;28;20032;-71
2021/03/06 11:23:05;;;;;;;3.50;1.90;;;17.10;90.20;;;;;;5093363;28;20016;-73
2021/03/06 11:25:32;;;;;;;3.13;1.80;;;17.20;90.10;;;;;;5093415;28;20059;-73
2021/03/06 11:28:03;;;;;;;3.17;1.80;;;17.20;90.10;;;;;;5093311;28;20044;-70
2021/03/06 11:30:37;;;;;;;4.00;1.92;;;17.30;90.20;;;;;;5093429;28;20016;-73
2021/03/06 11:33:04;;;;;;;;;;;17.30;90.20;;;;;;5093697;28;20054;-73
2021/03/06 11:35:30;;;;;;;3.92;2.17;;;17.30;90.20;;;;;;5092787;28;19931;-73
2021/03/06 11:37:56;;;;;;;5.35;1.88;;;17.40;90.20;;;;;;5093052;28;20024;-73
2021/03/06 11:40:30;;;;;;;2.83;1.77;;;17.40;90.20;;;;;;5093018;28;20479;-73
2021/03/06 11:42:56;;;;;;;2.70;1.75;;;17.50;90.30;;;;;;5093397;28;20541;-75
2021/03/06 11:45:22;;;;;;;4.18;1.90;;;17.50;90.30;;;;;;5092959;28;20055;-72
2021/03/06 11:47:49;;;;;;;2.53;1.50;;;17.50;90.30;;;;;;5092381;28;20096;-72
2021/03/06 11:50:17;;;;;;;3.80;1.73;;;17.60;90.40;;;;;;5089102;28;20146;-73
2021/03/06 11:52:44;;;;;;;4.57;1.67;;;17.60;90.40;;;;;;5092992;28;20380;-73
2021/03/06 11:55:11;;;;;;;3.55;1.70;;;17.60;90.80;;;;;;5091677;28;20027;-72
2021/03/06 11:57:37;;;;;;;3.55;1.50;;;17.70;90.50;;;;;;5092449;28;20034;-70
2021/03/06 12:00:08;;;;;;;2.63;1.30;;;17.70;90.60;;;;;;5092645;28;20525;-69
2021/03/06 12:02:34;;;;;;;2.90;1.42;;;17.70;90.70;;;;;;5092173;28;20452;-72
2021/03/06 12:04:59;;;;;;;3.67;1.67;;;17.70;90.80;;;;;;5092031;28;20020;-72
2021/03/06 12:07:25;;;;;;;1.63;1.23;;;17.70;90.90;;;;;;5092416;28;20443;-74
2021/03/06 12:09:51;;;;;;;2.97;1.58;;;17.70;91.00;;;;;;5092538;28;20484;-73
2021/03/06 12:12:16;;;;;;;2.97;1.35;;;17.70;91.10;;;;;;5092148;28;20469;-73
2021/03/06 12:14:42;;;;;;;3.45;1.30;;;17.70;91.20;;;;;;5091970;28;20364;-70
2021/03/06 12:17:08;;;;;;;2.30;1.52;;;17.70;91.20;;;;;;5092417;28;20035;-72
2021/03/06 12:19:33;;;;;;;2.22;1.50;;;17.70;91.20;;;;;;5092376;28;20040;-72
2021/03/06 12:21:59;;;;;;;1.92;1.30;;;17.70;91.20;;;;;;5092387;28;20156;-69
2021/03/06 12:24:25;;;;;;;4.50;1.65;;;17.70;91.20;;;;;;5092622;28;20016;-72
2021/03/06 12:26:51;;;;;;;3.92;1.40;;;17.60;90.90;;;;;;5091735;28;20082;-72
2021/03/06 12:29:18;;;;;;;5.45;1.75;;;17.60;90.80;;;;;;5092401;28;20032;-72
2021/03/06 12:31:44;;;;;;;3.20;1.40;;;17.60;90.70;;;;;;5092403;28;20086;-69
2021/03/06 12:34:09;;;;;;;2.67;1.40;;;17.60;90.90;;;;;;5092207;28;20073;-68
2021/03/06 12:36:36;;;;;;;3.33;1.30;;;17.60;90.90;;;;;;5092100;28;20032;-69
2021/03/06 12:39:03;;;;;;;2.65;1.45;;;17.60;90.70;;;;;;5091774;28;20031;-69
2021/03/06 12:41:29;;;;;;;2.70;1.60;;;17.60;90.60;;;;;;5085502;28;20052;-71
2021/03/06 12:43:54;;;;;;;2.22;1.42;;;17.70;90.60;;;;;;5071820;28;20060;-71
2021/03/06 12:46:22;;;;;;;4.90;1.20;;;17.70;90.50;;;;;;5071875;28;20037;-71
2021/03/06 12:48:49;;;;;;;2.88;1.42;;;17.60;90.50;;;;;;5091933;28;20040;-70
2021/03/06 12:51:14;;;;;;;3.35;1.35;;;17.70;90.50;;;;;;5085248;28;20024;-70
2021/03/06 12:53:40;;;;;;;3.55;1.40;;;17.60;90.50;;;;;;5071843;28;20037;-69